sensor_id;sensor_type;location;lat;lon;timestamp;pressure;altitude;pressure_sealevel;temperature;humidity
63708;BME280;67643;-34.198;22.084;2023-08-31T00:00:31;99577.56;;;23.26;31.16
63708;BME280;67643;-34.198;22.084;2023-08-31T00:03:00;99573.11;;;23.23;31.26
63708;BME280;67643;-34.198;22.084;2023-08-31T00:05:28;99564.36;;;23.14;31.37
63708;BME280;67643;-34.198;22.084;2023-08-31T00:07:56;99560.76;;;23.23;31.27
63708;BME280;67643;-34.198;22.084;2023-08-31T00:10:25;99552.44;;;23.10;31.47
63708;BME280;67643;-34.198;22.084;2023-08-31T00:12:53;99549.57;;;23.21;31.82
63708;BME280;67643;-34.198;22.084;2023-08-31T00:15:21;99547.18;;;22.95;31.70
63708;BME280;67643;-34.198;22.084;2023-08-31T00:17:50;99547.11;;;23.12;32.29
63708;BME280;67643;-34.198;22.084;2023-08-31T00:20:18;99549.17;;;23.07;31.96
63708;BME280;67643;-34.198;22.084;2023-08-31T00:22:46;99549.87;;;23.09;31.98
63708;BME280;67643;-34.198;22.084;2023-08-31T00:25:15;99555.53;;;22.87;31.99
63708;BME280;67643;-34.198;22.084;2023-08-31T00:27:43;99558.76;;;22.89;31.94
63708;BME280;67643;-34.198;22.084;2023-08-31T00:30:13;99561.03;;;22.99;31.94
63708;BME280;67643;-34.198;22.084;2023-08-31T00:32:41;99558.07;;;23.11;32.03
63708;BME280;67643;-34.198;22.084;2023-08-31T00:35:09;99552.92;;;23.03;31.87
63708;BME280;67643;-34.198;22.084;2023-08-31T00:37:37;99547.91;;;22.92;32.04
63708;BME280;67643;-34.198;22.084;2023-08-31T00:40:06;99552.57;;;22.83;32.13
63708;BME280;67643;-34.198;22.084;2023-08-31T00:42:35;99557.81;;;23.21;31.99
63708;BME280;67643;-34.198;22.084;2023-08-31T00:45:03;99554.74;;;22.82;32.20
63708;BME280;67643;-34.198;22.084;2023-08-31T00:47:32;99546.61;;;23.08;32.17
63708;BME280;67643;-34.198;22.084;2023-08-31T00:50:00;99535.49;;;22.59;32.37
63708;BME280;67643;-34.198;22.084;2023-08-31T00:52:29;99528.01;;;22.86;32.19
63708;BME280;67643;-34.198;22.084;2023-08-31T00:54:58;99513.19;;;23.01;32.30
63708;BME280;67643;-34.198;22.084;2023-08-31T00:57:27;99505.86;;;22.74;32.33
63708;BME280;67643;-34.198;22.084;2023-08-31T00:59:55;99508.12;;;22.81;32.35
63708;BME280;67643;-34.198;22.084;2023-08-31T01:02:32;99519.07;;;23.06;32.34
63708;BME280;67643;-34.198;22.084;2023-08-31T01:05:08;99527.51;;;22.68;32.50
63708;BME280;67643;-34.198;22.084;2023-08-31T01:07:43;99537.70;;;22.66;32.49
63708;BME280;67643;-34.198;22.084;2023-08-31T01:10:22;99533.25;;;23.14;32.51
63708;BME280;67643;-34.198;22.084;2023-08-31T01:12:58;99531.24;;;22.70;32.54
63708;BME280;67643;-34.198;22.084;2023-08-31T01:15:30;99527.41;;;22.52;32.63
63708;BME280;67643;-34.198;22.084;2023-08-31T01:18:01;99531.48;;;22.84;32.62
63708;BME280;67643;-34.198;22.084;2023-08-31T01:20:34;99533.28;;;22.54;32.65
63708;BME280;67643;-34.198;22.084;2023-08-31T01:23:09;99530.67;;;22.75;32.69
63708;BME280;67643;-34.198;22.084;2023-08-31T01:25:38;99530.53;;;22.47;32.79
63708;BME280;67643;-34.198;22.084;2023-08-31T01:28:09;99539.78;;;22.48;32.83
63708;BME280;67643;-34.198;22.084;2023-08-31T01:30:38;99541.69;;;23.04;32.77
63708;BME280;67643;-34.198;22.084;2023-08-31T01:33:07;99542.44;;;22.53;32.77
63708;BME280;67643;-34.198;22.084;2023-08-31T01:35:38;99547.83;;;22.47;32.91
63708;BME280;67643;-34.198;22.084;2023-08-31T01:38:09;99553.84;;;22.69;33.05
63708;BME280;67643;-34.198;22.084;2023-08-31T01:40:43;99559.90;;;22.75;32.98
63708;BME280;67643;-34.198;22.084;2023-08-31T01:43:13;99567.87;;;22.90;33.25
63708;BME280;67643;-34.198;22.084;2023-08-31T01:45:42;99568.66;;;22.41;33.51
63708;BME280;67643;-34.198;22.084;2023-08-31T01:48:11;99560.13;;;22.61;33.53
63708;BME280;67643;-34.198;22.084;2023-08-31T01:50:41;99559.29;;;22.56;33.69
63708;BME280;67643;-34.198;22.084;2023-08-31T01:53:09;99555.96;;;22.50;33.82
63708;BME280;67643;-34.198;22.084;2023-08-31T01:55:38;99549.64;;;22.48;34.07
63708;BME280;67643;-34.198;22.084;2023-08-31T01:58:06;99547.10;;;22.24;34.04
63708;BME280;67643;-34.198;22.084;2023-08-31T02:00:35;99551.94;;;22.27;34.09
63708;BME280;67643;-34.198;22.084;2023-08-31T02:03:04;99558.49;;;22.09;34.27
63708;BME280;67643;-34.198;22.084;2023-08-31T02:05:32;99551.96;;;22.38;34.34
63708;BME280;67643;-34.198;22.084;2023-08-31T02:08:01;99551.82;;;22.57;34.65
63708;BME280;67643;-34.198;22.084;2023-08-31T02:10:29;99561.45;;;22.15;34.52
63708;BME280;67643;-34.198;22.084;2023-08-31T02:12:57;99563.09;;;22.62;34.45
63708;BME280;67643;-34.198;22.084;2023-08-31T02:15:26;99564.93;;;22.54;34.63
63708;BME280;67643;-34.198;22.084;2023-08-31T02:17:55;99577.51;;;22.51;34.63
63708;BME280;67643;-34.198;22.084;2023-08-31T02:20:23;99590.94;;;22.19;35.01
63708;BME280;67643;-34.198;22.084;2023-08-31T02:22:51;99596.35;;;22.42;35.11
63708;BME280;67643;-34.198;22.084;2023-08-31T02:25:20;99600.97;;;22.34;35.14
63708;BME280;67643;-34.198;22.084;2023-08-31T02:27:48;99604.82;;;22.16;35.21
63708;BME280;67643;-34.198;22.084;2023-08-31T02:30:16;99604.12;;;21.87;35.43
63708;BME280;67643;-34.198;22.084;2023-08-31T02:32:44;99613.79;;;22.31;35.62
63708;BME280;67643;-34.198;22.084;2023-08-31T02:35:13;99618.93;;;21.74;35.83
63708;BME280;67643;-34.198;22.084;2023-08-31T02:37:41;99625.07;;;22.35;35.71
63708;BME280;67643;-34.198;22.084;2023-08-31T02:40:11;99625.41;;;22.38;35.70
63708;BME280;67643;-34.198;22.084;2023-08-31T02:42:40;99628.77;;;21.78;35.97
63708;BME280;67643;-34.198;22.084;2023-08-31T02:45:08;99629.33;;;22.02;36.07
63708;BME280;67643;-34.198;22.084;2023-08-31T02:47:37;99629.12;;;22.07;35.94
63708;BME280;67643;-34.198;22.084;2023-08-31T02:50:06;99633.73;;;22.06;36.08
63708;BME280;67643;-34.198;22.084;2023-08-31T02:52:35;99632.40;;;22.25;36.20
63708;BME280;67643;-34.198;22.084;2023-08-31T02:55:03;99630.17;;;22.10;36.22
63708;BME280;67643;-34.198;22.084;2023-08-31T02:57:31;99637.22;;;22.26;36.23
63708;BME280;67643;-34.198;22.084;2023-08-31T03:00:00;99642.26;;;21.71;36.40
63708;BME280;67643;-34.198;22.084;2023-08-31T03:02:28;99646.63;;;21.97;36.32
63708;BME280;67643;-34.198;22.084;2023-08-31T03:04:57;99653.77;;;22.21;36.38
63708;BME280;67643;-34.198;22.084;2023-08-31T03:07:25;99660.94;;;22.27;36.40
63708;BME280;67643;-34.198;22.084;2023-08-31T03:09:53;99662.69;;;21.98;36.39
63708;BME280;67643;-34.198;22.084;2023-08-31T03:12:22;99663.86;;;22.06;36.60
63708;BME280;67643;-34.198;22.084;2023-08-31T03:14:49;99672.50;;;22.13;36.63
63708;BME280;67643;-34.198;22.084;2023-08-31T03:17:18;99677.91;;;22.10;36.64
63708;BME280;67643;-34.198;22.084;2023-08-31T03:19:46;99677.92;;;22.04;36.45
63708;BME280;67643;-34.198;22.084;2023-08-31T03:22:14;99676.42;;;22.10;36.62
63708;BME280;67643;-34.198;22.084;2023-08-31T03:24:43;99682.80;;;22.16;36.45
63708;BME280;67643;-34.198;22.084;2023-08-31T03:27:12;99683.97;;;22.21;36.40
63708;BME280;67643;-34.198;22.084;2023-08-31T03:29:40;99685.21;;;22.32;36.40
63708;BME280;67643;-34.198;22.084;2023-08-31T03:32:08;99689.48;;;22.02;36.48
63708;BME280;67643;-34.198;22.084;2023-08-31T03:34:36;99686.03;;;22.21;36.53
63708;BME280;67643;-34.198;22.084;2023-08-31T03:37:05;99685.00;;;22.02;36.49
63708;BME280;67643;-34.198;22.084;2023-08-31T03:39:33;99682.15;;;21.93;36.44
63708;BME280;67643;-34.198;22.084;2023-08-31T03:42:01;99686.66;;;22.16;36.50
63708;BME280;67643;-34.198;22.084;2023-08-31T03:44:30;99683.57;;;22.02;36.45
63708;BME280;67643;-34.198;22.084;2023-08-31T03:46:58;99690.02;;;22.29;36.27
63708;BME280;67643;-34.198;22.084;2023-08-31T03:49:26;99694.36;;;22.26;36.34
63708;BME280;67643;-34.198;22.084;2023-08-31T03:51:54;99692.53;;;22.41;36.10
63708;BME280;67643;-34.198;22.084;2023-08-31T03:54:23;99687.56;;;22.26;36.34
63708;BME280;67643;-34.198;22.084;2023-08-31T03:56:51;99689.00;;;22.23;36.37
63708;BME280;67643;-34.198;22.084;2023-08-31T03:59:19;99678.40;;;22.11;36.31
63708;BME280;67643;-34.198;22.084;2023-08-31T04:01:48;99678.07;;;22.16;36.36
63708;BME280;67643;-34.198;22.084;2023-08-31T04:04:16;99667.50;;;22.40;36.20
63708;BME280;67643;-34.198;22.084;2023-08-31T04:06:44;99668.05;;;22.11;36.31
63708;BME280;67643;-34.198;22.084;2023-08-31T06:06:38;99687.96;;;18.36;47.69
63708;BME280;67643;-34.198;22.084;2023-08-31T06:09:07;99685.85;;;19.74;43.67
63708;BME280;67643;-34.198;22.084;2023-08-31T06:11:35;99689.36;;;20.52;41.49
63708;BME280;67643;-34.198;22.084;2023-08-31T06:14:03;99689.74;;;20.82;40.15
63708;BME280;67643;-34.198;22.084;2023-08-31T06:16:32;99687.76;;;21.28;39.30
63708;BME280;67643;-34.198;22.084;2023-08-31T06:19:00;99691.60;;;21.56;38.83
63708;BME280;67643;-34.198;22.084;2023-08-31T06:21:29;99697.68;;;21.62;38.37
63708;BME280;67643;-34.198;22.084;2023-08-31T06:23:57;99705.03;;;21.56;38.28
63708;BME280;67643;-34.198;22.084;2023-08-31T06:26:25;99709.20;;;21.66;38.08
63708;BME280;67643;-34.198;22.084;2023-08-31T06:28:54;99706.86;;;22.00;37.85
63708;BME280;67643;-34.198;22.084;2023-08-31T06:31:22;99699.33;;;21.91;37.94
63708;BME280;67643;-34.198;22.084;2023-08-31T06:33:51;99710.54;;;21.83;37.74
63708;BME280;67643;-34.198;22.084;2023-08-31T06:36:19;99708.25;;;21.85;37.68
63708;BME280;67643;-34.198;22.084;2023-08-31T06:38:47;99706.74;;;21.69;37.92
63708;BME280;67643;-34.198;22.084;2023-08-31T06:41:16;99695.93;;;21.56;37.72
63708;BME280;67643;-34.198;22.084;2023-08-31T06:43:44;99708.19;;;21.90;37.72
63708;BME280;67643;-34.198;22.084;2023-08-31T06:46:12;99700.63;;;22.29;37.49
63708;BME280;67643;-34.198;22.084;2023-08-31T06:48:40;99704.59;;;22.14;37.74
63708;BME280;67643;-34.198;22.084;2023-08-31T06:51:08;99709.63;;;21.85;37.85
63708;BME280;67643;-34.198;22.084;2023-08-31T06:53:37;99718.92;;;21.55;38.17
63708;BME280;67643;-34.198;22.084;2023-08-31T06:56:05;99715.48;;;22.12;37.73
63708;BME280;67643;-34.198;22.084;2023-08-31T06:58:33;99704.99;;;22.13;38.31
63708;BME280;67643;-34.198;22.084;2023-08-31T07:01:06;99701.14;;;21.90;38.29
63708;BME280;67643;-34.198;22.084;2023-08-31T07:03:34;99697.03;;;21.81;38.33
63708;BME280;67643;-34.198;22.084;2023-08-31T07:06:02;99699.60;;;21.61;38.24
63708;BME280;67643;-34.198;22.084;2023-08-31T07:08:33;99704.71;;;21.56;38.40
63708;BME280;67643;-34.198;22.084;2023-08-31T07:11:01;99710.13;;;21.81;38.28
63708;BME280;67643;-34.198;22.084;2023-08-31T07:13:30;99716.45;;;21.86;38.29
63708;BME280;67643;-34.198;22.084;2023-08-31T07:15:58;99717.40;;;22.05;38.02
63708;BME280;67643;-34.198;22.084;2023-08-31T07:18:27;99720.18;;;21.67;38.23
63708;BME280;67643;-34.198;22.084;2023-08-31T07:20:54;99715.47;;;22.11;38.03
63708;BME280;67643;-34.198;22.084;2023-08-31T07:23:23;99712.81;;;22.16;37.93
63708;BME280;67643;-34.198;22.084;2023-08-31T07:25:51;99713.64;;;21.96;38.30
63708;BME280;67643;-34.198;22.084;2023-08-31T07:28:19;99715.61;;;21.81;38.21
63708;BME280;67643;-34.198;22.084;2023-08-31T07:30:47;99718.27;;;21.78;38.29
63708;BME280;67643;-34.198;22.084;2023-08-31T07:33:15;99725.41;;;21.82;38.33
63708;BME280;67643;-34.198;22.084;2023-08-31T07:35:44;99726.01;;;22.08;37.97
63708;BME280;67643;-34.198;22.084;2023-08-31T07:38:12;99727.78;;;22.21;37.96
63708;BME280;67643;-34.198;22.084;2023-08-31T07:40:40;99724.78;;;22.15;37.79
63708;BME280;67643;-34.198;22.084;2023-08-31T07:43:09;99726.76;;;21.83;38.03
63708;BME280;67643;-34.198;22.084;2023-08-31T07:45:37;99720.91;;;21.80;38.30
63708;BME280;67643;-34.198;22.084;2023-08-31T07:48:06;99713.41;;;22.18;37.90
63708;BME280;67643;-34.198;22.084;2023-08-31T07:50:34;99711.91;;;21.98;38.17
63708;BME280;67643;-34.198;22.084;2023-08-31T07:53:03;99715.16;;;22.13;37.98
63708;BME280;67643;-34.198;22.084;2023-08-31T07:55:31;99714.01;;;21.82;39.43
63708;BME280;67643;-34.198;22.084;2023-08-31T07:58:00;99707.67;;;21.99;39.65
63708;BME280;67643;-34.198;22.084;2023-08-31T08:00:29;99705.53;;;22.26;39.80
63708;BME280;67643;-34.198;22.084;2023-08-31T08:02:57;99702.52;;;21.82;40.56
63708;BME280;67643;-34.198;22.084;2023-08-31T08:05:26;99703.79;;;22.22;40.16
63708;BME280;67643;-34.198;22.084;2023-08-31T08:07:55;99704.04;;;22.04;40.38
63708;BME280;67643;-34.198;22.084;2023-08-31T08:10:23;99710.02;;;21.99;39.99
63708;BME280;67643;-34.198;22.084;2023-08-31T08:12:52;99707.46;;;21.83;40.37
63708;BME280;67643;-34.198;22.084;2023-08-31T08:15:20;99708.91;;;21.94;39.79
63708;BME280;67643;-34.198;22.084;2023-08-31T08:17:48;99709.99;;;21.72;39.71
63708;BME280;67643;-34.198;22.084;2023-08-31T08:20:16;99715.61;;;21.48;40.19
63708;BME280;67643;-34.198;22.084;2023-08-31T08:22:44;99721.58;;;21.70;39.92
63708;BME280;67643;-34.198;22.084;2023-08-31T08:25:12;99724.77;;;21.63;39.72
63708;BME280;67643;-34.198;22.084;2023-08-31T08:27:40;99727.42;;;22.02;39.45
63708;BME280;67643;-34.198;22.084;2023-08-31T08:30:09;99728.39;;;21.95;39.61
63708;BME280;67643;-34.198;22.084;2023-08-31T08:32:37;99734.33;;;22.04;39.41
63708;BME280;67643;-34.198;22.084;2023-08-31T08:35:05;99737.96;;;21.67;39.66
63708;BME280;67643;-34.198;22.084;2023-08-31T08:37:34;99737.31;;;21.76;39.52
63708;BME280;67643;-34.198;22.084;2023-08-31T08:40:03;99736.82;;;21.49;39.51
63708;BME280;67643;-34.198;22.084;2023-08-31T08:42:31;99748.40;;;21.95;39.25
63708;BME280;67643;-34.198;22.084;2023-08-31T08:45:02;99748.68;;;21.94;39.25
63708;BME280;67643;-34.198;22.084;2023-08-31T08:47:30;99747.69;;;22.02;39.15
63708;BME280;67643;-34.198;22.084;2023-08-31T08:50:00;99750.72;;;21.81;39.05
63708;BME280;67643;-34.198;22.084;2023-08-31T08:52:29;99748.13;;;22.22;38.88
63708;BME280;67643;-34.198;22.084;2023-08-31T08:54:58;99741.65;;;21.90;38.92
63708;BME280;67643;-34.198;22.084;2023-08-31T08:57:30;99752.40;;;22.00;38.81
63708;BME280;67643;-34.198;22.084;2023-08-31T08:59:59;99755.43;;;22.20;38.52
63708;BME280;67643;-34.198;22.084;2023-08-31T09:02:27;99755.38;;;22.07;38.68
63708;BME280;67643;-34.198;22.084;2023-08-31T09:04:55;99757.23;;;22.04;38.68
63708;BME280;67643;-34.198;22.084;2023-08-31T09:07:23;99763.37;;;22.03;38.68
63708;BME280;67643;-34.198;22.084;2023-08-31T09:09:52;99761.26;;;22.00;38.72
63708;BME280;67643;-34.198;22.084;2023-08-31T09:12:23;99758.87;;;22.20;38.82
63708;BME280;67643;-34.198;22.084;2023-08-31T09:15:00;99756.28;;;22.34;38.64
63708;BME280;67643;-34.198;22.084;2023-08-31T09:17:39;99755.72;;;22.29;38.32
63708;BME280;67643;-34.198;22.084;2023-08-31T09:20:08;99755.36;;;22.40;38.16
63708;BME280;67643;-34.198;22.084;2023-08-31T09:22:36;99755.46;;;22.34;38.29
63708;BME280;67643;-34.198;22.084;2023-08-31T09:25:05;99758.03;;;22.32;38.33
63708;BME280;67643;-34.198;22.084;2023-08-31T09:27:38;99764.92;;;22.08;38.70
63708;BME280;67643;-34.198;22.084;2023-08-31T09:30:07;99767.28;;;22.21;38.52
63708;BME280;67643;-34.198;22.084;2023-08-31T09:32:36;99769.59;;;22.27;38.42
63708;BME280;67643;-34.198;22.084;2023-08-31T09:35:09;99763.39;;;22.34;38.31
63708;BME280;67643;-34.198;22.084;2023-08-31T09:37:37;99760.27;;;22.22;38.49
63708;BME280;67643;-34.198;22.084;2023-08-31T09:40:06;99759.99;;;22.36;38.64
63708;BME280;67643;-34.198;22.084;2023-08-31T09:42:37;99759.41;;;22.52;38.41
63708;BME280;67643;-34.198;22.084;2023-08-31T09:45:06;99755.94;;;22.46;38.58
63708;BME280;67643;-34.198;22.084;2023-08-31T09:47:35;99755.55;;;22.38;38.37
63708;BME280;67643;-34.198;22.084;2023-08-31T09:50:04;99753.61;;;22.39;38.39
63708;BME280;67643;-34.198;22.084;2023-08-31T09:52:34;99757.51;;;22.37;38.42
63708;BME280;67643;-34.198;22.084;2023-08-31T09:55:04;99754.32;;;22.27;38.65
63708;BME280;67643;-34.198;22.084;2023-08-31T09:57:34;99742.72;;;22.48;38.33
63708;BME280;67643;-34.198;22.084;2023-08-31T10:00:03;99737.44;;;23.00;38.25
63708;BME280;67643;-34.198;22.084;2023-08-31T10:02:32;99734.31;;;22.51;38.20
63708;BME280;67643;-34.198;22.084;2023-08-31T10:05:01;99731.24;;;22.48;38.20
63708;BME280;67643;-34.198;22.084;2023-08-31T10:07:29;99736.81;;;22.56;38.08
63708;BME280;67643;-34.198;22.084;2023-08-31T10:09:58;99733.13;;;22.44;38.19
63708;BME280;67643;-34.198;22.084;2023-08-31T10:12:28;99729.66;;;22.36;38.26
63708;BME280;67643;-34.198;22.084;2023-08-31T10:14:58;99724.61;;;22.73;37.71
63708;BME280;67643;-34.198;22.084;2023-08-31T10:17:28;99718.27;;;22.70;37.75
63708;BME280;67643;-34.198;22.084;2023-08-31T10:19:56;99710.57;;;22.58;37.92
63708;BME280;67643;-34.198;22.084;2023-08-31T10:22:25;99709.50;;;22.54;37.98
63708;BME280;67643;-34.198;22.084;2023-08-31T10:24:57;99700.17;;;22.69;37.78
63708;BME280;67643;-34.198;22.084;2023-08-31T10:27:26;99698.84;;;22.55;37.87
63708;BME280;67643;-34.198;22.084;2023-08-31T10:29:55;99690.87;;;22.55;37.83
63708;BME280;67643;-34.198;22.084;2023-08-31T10:32:23;99693.49;;;22.56;37.83
63708;BME280;67643;-34.198;22.084;2023-08-31T10:35:08;99687.14;;;22.79;37.55
63708;BME280;67643;-34.198;22.084;2023-08-31T10:37:37;99684.45;;;22.85;37.49
63708;BME280;67643;-34.198;22.084;2023-08-31T10:40:08;99677.62;;;22.71;37.60
63708;BME280;67643;-34.198;22.084;2023-08-31T10:42:43;99678.39;;;22.81;37.53
63708;BME280;67643;-34.198;22.084;2023-08-31T10:45:12;99674.51;;;22.61;37.72
63708;BME280;67643;-34.198;22.084;2023-08-31T10:47:41;99675.54;;;22.45;37.94
63708;BME280;67643;-34.198;22.084;2023-08-31T10:50:21;99675.80;;;22.60;37.77
63708;BME280;67643;-34.198;22.084;2023-08-31T10:52:49;99669.39;;;22.50;37.91
63708;BME280;67643;-34.198;22.084;2023-08-31T10:55:18;99668.87;;;22.69;37.66
63708;BME280;67643;-34.198;22.084;2023-08-31T10:57:46;99664.82;;;22.29;37.92
63708;BME280;67643;-34.198;22.084;2023-08-31T11:00:46;99663.04;;;22.68;37.72
63708;BME280;67643;-34.198;22.084;2023-08-31T11:03:15;99655.63;;;22.91;37.37
63708;BME280;67643;-34.198;22.084;2023-08-31T11:05:52;99652.73;;;22.66;37.35
63708;BME280;67643;-34.198;22.084;2023-08-31T11:08:23;99657.77;;;22.86;37.36
63708;BME280;67643;-34.198;22.084;2023-08-31T11:10:52;99662.00;;;22.75;37.40
63708;BME280;67643;-34.198;22.084;2023-08-31T11:13:21;99656.64;;;22.74;37.33
63708;BME280;67643;-34.198;22.084;2023-08-31T11:15:51;99654.47;;;22.58;37.43
63708;BME280;67643;-34.198;22.084;2023-08-31T11:18:21;99651.33;;;22.47;37.53
63708;BME280;67643;-34.198;22.084;2023-08-31T11:20:50;99655.39;;;22.79;37.36
63708;BME280;67643;-34.198;22.084;2023-08-31T11:23:20;99659.39;;;22.53;37.27
63708;BME280;67643;-34.198;22.084;2023-08-31T11:25:49;99659.78;;;22.52;37.20
63708;BME280;67643;-34.198;22.084;2023-08-31T11:28:18;99661.10;;;22.53;37.15
63708;BME280;67643;-34.198;22.084;2023-08-31T11:30:48;99654.13;;;22.56;37.10
63708;BME280;67643;-34.198;22.084;2023-08-31T11:33:16;99653.58;;;22.83;36.72
63708;BME280;67643;-34.198;22.084;2023-08-31T11:35:45;99662.73;;;22.71;36.79
63708;BME280;67643;-34.198;22.084;2023-08-31T11:38:13;99665.46;;;22.92;36.47
63708;BME280;67643;-34.198;22.084;2023-08-31T11:40:42;99664.90;;;22.96;35.97
63708;BME280;67643;-34.198;22.084;2023-08-31T11:43:11;99667.49;;;22.87;35.97
63708;BME280;67643;-34.198;22.084;2023-08-31T11:45:40;99664.61;;;23.20;35.86
63708;BME280;67643;-34.198;22.084;2023-08-31T11:48:09;99665.74;;;22.62;35.98
63708;BME280;67643;-34.198;22.084;2023-08-31T11:50:38;99662.97;;;23.46;35.53
63708;BME280;67643;-34.198;22.084;2023-08-31T11:53:07;99663.85;;;23.12;35.91
63708;BME280;67643;-34.198;22.084;2023-08-31T11:55:36;99668.99;;;23.29;35.66
63708;BME280;67643;-34.198;22.084;2023-08-31T11:58:08;99668.73;;;23.13;35.84
63708;BME280;67643;-34.198;22.084;2023-08-31T12:00:36;99660.66;;;23.10;35.62
63708;BME280;67643;-34.198;22.084;2023-08-31T14:04:19;99762.08;;;20.25;41.65
63708;BME280;67643;-34.198;22.084;2023-08-31T14:06:48;99765.04;;;20.96;38.90
63708;BME280;67643;-34.198;22.084;2023-08-31T14:09:17;99767.87;;;21.38;37.55
63708;BME280;67643;-34.198;22.084;2023-08-31T14:11:45;99774.15;;;22.05;36.17
63708;BME280;67643;-34.198;22.084;2023-08-31T14:14:13;99773.88;;;22.07;35.69
63708;BME280;67643;-34.198;22.084;2023-08-31T14:16:41;99778.23;;;22.40;35.20
63708;BME280;67643;-34.198;22.084;2023-08-31T14:19:10;99779.34;;;22.76;34.74
63708;BME280;67643;-34.198;22.084;2023-08-31T14:21:38;99775.91;;;22.88;34.51
63708;BME280;67643;-34.198;22.084;2023-08-31T14:24:07;99788.06;;;22.81;34.70
63708;BME280;67643;-34.198;22.084;2023-08-31T14:26:35;99792.97;;;22.71;34.57
63708;BME280;67643;-34.198;22.084;2023-08-31T14:29:03;99796.55;;;22.92;34.24
63708;BME280;67643;-34.198;22.084;2023-08-31T14:31:32;99802.58;;;22.80;34.46
63708;BME280;67643;-34.198;22.084;2023-08-31T14:34:00;99808.27;;;22.75;34.45
63708;BME280;67643;-34.198;22.084;2023-08-31T14:36:28;99809.96;;;23.00;34.34
63708;BME280;67643;-34.198;22.084;2023-08-31T14:38:57;99811.68;;;22.90;34.23
63708;BME280;67643;-34.198;22.084;2023-08-31T14:41:25;99815.35;;;22.67;34.46
63708;BME280;67643;-34.198;22.084;2023-08-31T14:43:53;99822.40;;;22.58;34.50
63708;BME280;67643;-34.198;22.084;2023-08-31T14:46:21;99829.32;;;22.84;34.21
63708;BME280;67643;-34.198;22.084;2023-08-31T14:48:49;99835.26;;;22.61;34.48
63708;BME280;67643;-34.198;22.084;2023-08-31T14:51:18;99851.50;;;22.89;34.49
63708;BME280;67643;-34.198;22.084;2023-08-31T14:53:47;99852.90;;;22.70;34.67
63708;BME280;67643;-34.198;22.084;2023-08-31T14:56:15;99856.47;;;22.89;34.73
63708;BME280;67643;-34.198;22.084;2023-08-31T14:58:43;99864.60;;;22.78;34.89
63708;BME280;67643;-34.198;22.084;2023-08-31T15:01:11;99872.93;;;22.87;34.96
63708;BME280;67643;-34.198;22.084;2023-08-31T15:03:40;99873.55;;;22.85;35.02
63708;BME280;67643;-34.198;22.084;2023-08-31T15:06:09;99873.52;;;22.82;34.97
63708;BME280;67643;-34.198;22.084;2023-08-31T15:08:39;99882.58;;;22.97;34.90
63708;BME280;67643;-34.198;22.084;2023-08-31T15:11:08;99890.43;;;22.71;35.93
63708;BME280;67643;-34.198;22.084;2023-08-31T15:13:36;99898.17;;;22.67;35.94
63708;BME280;67643;-34.198;22.084;2023-08-31T15:16:05;99905.50;;;22.66;35.82
63708;BME280;67643;-34.198;22.084;2023-08-31T15:18:33;99914.97;;;22.47;36.98
63708;BME280;67643;-34.198;22.084;2023-08-31T15:21:01;99930.04;;;22.58;37.54
63708;BME280;67643;-34.198;22.084;2023-08-31T15:23:29;99939.04;;;22.54;37.99
63708;BME280;67643;-34.198;22.084;2023-08-31T15:26:01;99947.44;;;22.43;37.94
63708;BME280;67643;-34.198;22.084;2023-08-31T15:28:30;99944.84;;;22.52;38.66
63708;BME280;67643;-34.198;22.084;2023-08-31T15:30:58;99960.94;;;22.37;38.27
63708;BME280;67643;-34.198;22.084;2023-08-31T15:33:26;99977.32;;;22.37;38.19
63708;BME280;67643;-34.198;22.084;2023-08-31T15:36:03;99988.15;;;22.21;38.08
63708;BME280;67643;-34.198;22.084;2023-08-31T15:38:31;100009.75;;;21.99;37.87
63708;BME280;67643;-34.198;22.084;2023-08-31T15:41:00;100020.52;;;22.22;37.72
63708;BME280;67643;-34.198;22.084;2023-08-31T15:43:30;100030.38;;;21.76;37.66
63708;BME280;67643;-34.198;22.084;2023-08-31T15:46:00;100031.74;;;22.24;37.58
63708;BME280;67643;-34.198;22.084;2023-08-31T15:48:29;100042.41;;;21.63;37.49
63708;BME280;67643;-34.198;22.084;2023-08-31T15:50:58;100038.12;;;21.62;37.31
63708;BME280;67643;-34.198;22.084;2023-08-31T15:53:27;100043.86;;;21.49;37.31
63708;BME280;67643;-34.198;22.084;2023-08-31T15:55:55;100048.00;;;21.62;36.99
63708;BME280;67643;-34.198;22.084;2023-08-31T15:58:23;100050.72;;;21.67;37.08
63708;BME280;67643;-34.198;22.084;2023-08-31T16:00:52;100060.24;;;21.43;36.91
63708;BME280;67643;-34.198;22.084;2023-08-31T16:03:20;100058.82;;;21.84;36.57
63708;BME280;67643;-34.198;22.084;2023-08-31T16:05:49;100068.24;;;22.15;36.35
63708;BME280;67643;-34.198;22.084;2023-08-31T16:08:18;100080.20;;;21.43;36.54
63708;BME280;67643;-34.198;22.084;2023-08-31T16:10:47;100089.95;;;21.46;36.42
63708;BME280;67643;-34.198;22.084;2023-08-31T16:13:15;100091.81;;;21.68;36.07
63708;BME280;67643;-34.198;22.084;2023-08-31T16:15:46;100094.41;;;21.86;36.04
63708;BME280;67643;-34.198;22.084;2023-08-31T16:18:14;100096.70;;;21.59;35.95
63708;BME280;67643;-34.198;22.084;2023-08-31T16:20:43;100099.63;;;21.62;35.78
63708;BME280;67643;-34.198;22.084;2023-08-31T16:23:11;100101.86;;;21.58;35.78
63708;BME280;67643;-34.198;22.084;2023-08-31T16:25:39;100104.81;;;21.60;35.75
63708;BME280;67643;-34.198;22.084;2023-08-31T16:28:09;100105.22;;;21.43;35.94
63708;BME280;67643;-34.198;22.084;2023-08-31T16:30:37;100111.12;;;21.98;35.88
63708;BME280;67643;-34.198;22.084;2023-08-31T16:33:06;100118.02;;;21.97;36.13
63708;BME280;67643;-34.198;22.084;2023-08-31T16:35:34;100118.61;;;21.85;36.12
63708;BME280;67643;-34.198;22.084;2023-08-31T16:38:02;100122.80;;;21.86;36.08
63708;BME280;67643;-34.198;22.084;2023-08-31T16:40:30;100131.59;;;21.68;35.99
63708;BME280;67643;-34.198;22.084;2023-08-31T16:42:59;100134.04;;;21.64;35.99
63708;BME280;67643;-34.198;22.084;2023-08-31T16:45:27;100131.93;;;21.85;36.34